CheckWX is a tool to help pilots better visualize weather data.  It is not intended as a substitute for an official pre-flight weather briefing.

18:56:24 UTC

KEND TAF
Vance AFB Airport
Enid, Oklahoma, USA
TAF KEND 271800Z 2718/2824 03010G15KT 9999 SCT100 QNH2987INS BECMG 2720/2721 01010G20KT 9999 VCSH SCT100 QNH2986INS BECMG 2721/2722 36010KT 8000 -SHRA BKN100 QNH2986INS BECMG 2801/2802 35007KT 9999 NSW SCT100 QNH2994INS BECMG 2812/2813 34009KT 9000 -SHRA FEW020 BKN035 QNH2995INS BECMG 2816/2817 36010G20KT 9999 NSW BKN050 QNH3000INS TX26/2721Z TN17/2811Z

May-27@
18:00 UTC

May-27 @ 18:00 UTC

May-27@
20:00 UTC

May-27 @ 20:00 UTC

TAF KEND 271800Z 2718/2824 03010G15KT 9999 SCT100 QNH2987INS

Expired

Wind
  • 030° at 10 KTS
  • {Gusting to 15 KTS
Cloud Levels
  • Scattered at 10,000' AGL

May-27@
20:00 UTC

May-27 @ 20:00 UTC

May-27@
21:00 UTC

May-27 @ 21:00 UTC

BECMG 2720/2721 01010G20KT 9999 VCSH SCT100 QNH2986INS

Expired

Wind
  • 010° at 10 KTS
  • {Gusting to 20 KTS
Conditions
Area Showers
Cloud Levels
  • Scattered at 10,000' AGL

May-27@
21:00 UTC

May-27 @ 21:00 UTC

May-28@
01:00 UTC

May-28 @ 01:00 UTC

BECMG 2721/2722 36010KT 8000 -SHRA BKN100 QNH2986INS

Expired

Wind
  • 360° at 10 KTS
Conditions
Light Showers, Rain
Cloud Levels
  • Broken at 10,000' AGL

May-28@
01:00 UTC

May-28 @ 01:00 UTC

May-28@
12:00 UTC

May-28 @ 12:00 UTC

BECMG 2801/2802 35007KT 9999 NSW SCT100 QNH2994INS

Expired

Wind
  • 350° at 7 KTS
Conditions
No significant weather
Cloud Levels
  • Scattered at 10,000' AGL

May-28@
12:00 UTC

May-28 @ 12:00 UTC

May-28@
16:00 UTC

May-28 @ 16:00 UTC

BECMG 2812/2813 34009KT 9000 -SHRA FEW020 BKN035 QNH2995INS

Expired

Wind
  • 340° at 9 KTS
Conditions
Light Showers, Rain
Cloud Levels
  • Few at 2,000' AGL
  • Broken at 3,500' AGL

May-28@
16:00 UTC

May-28 @ 16:00 UTC

May-29@
00:00 UTC

May-29 @ 00:00 UTC

BECMG 2816/2817 36010G20KT 9999 NSW BKN050 QNH3000INS TX26/2721Z TN17/2811Z

Becoming

Becoming Conditions expected by Thu, May 28, 2020 @ 17:00 UTC

Wind
  • 360° at 10 KTS
  • {Gusting to 20 KTS
Conditions
No significant weather
Cloud Levels
  • Broken at 5,000' AGL